sensor_id;sensor_type;location;lat;lon;timestamp;temperature;humidity
11003;DHT22;5554;55.796;13.090;2022-07-24T00:00:49;17.50;99.90
11003;DHT22;5554;55.796;13.090;2022-07-24T00:03:16;17.40;99.90
11003;DHT22;5554;55.796;13.090;2022-07-24T00:05:43;17.50;99.90
11003;DHT22;5554;55.796;13.090;2022-07-24T00:08:11;17.30;99.90
11003;DHT22;5554;55.796;13.090;2022-07-24T00:10:38;17.30;99.90
11003;DHT22;5554;55.796;13.090;2022-07-24T00:13:05;17.20;99.90
11003;DHT22;5554;55.796;13.090;2022-07-24T00:15:32;17.30;99.90
11003;DHT22;5554;55.796;13.090;2022-07-24T00:17:59;17.30;99.90
11003;DHT22;5554;55.796;13.090;2022-07-24T00:20:26;17.30;99.90
11003;DHT22;5554;55.796;13.090;2022-07-24T00:22:54;17.20;99.90
11003;DHT22;5554;55.796;13.090;2022-07-24T00:25:23;17.20;99.90
11003;DHT22;5554;55.796;13.090;2022-07-24T00:27:50;17.20;99.90
11003;DHT22;5554;55.796;13.090;2022-07-24T00:30:16;17.30;99.90
11003;DHT22;5554;55.796;13.090;2022-07-24T00:32:43;17.20;99.90
11003;DHT22;5554;55.796;13.090;2022-07-24T00:35:10;17.10;99.90
11003;DHT22;5554;55.796;13.090;2022-07-24T00:37:38;17.10;99.90
11003;DHT22;5554;55.796;13.090;2022-07-24T00:40:06;16.90;99.90
11003;DHT22;5554;55.796;13.090;2022-07-24T00:42:34;17.00;99.90
11003;DHT22;5554;55.796;13.090;2022-07-24T00:45:01;17.00;99.90
11003;DHT22;5554;55.796;13.090;2022-07-24T00:47:28;16.90;99.90
11003;DHT22;5554;55.796;13.090;2022-07-24T00:49:55;17.00;99.90
11003;DHT22;5554;55.796;13.090;2022-07-24T00:52:22;16.90;99.90
11003;DHT22;5554;55.796;13.090;2022-07-24T00:54:48;16.90;99.90
11003;DHT22;5554;55.796;13.090;2022-07-24T00:57:15;16.90;99.90
11003;DHT22;5554;55.796;13.090;2022-07-24T00:59:44;16.90;99.90
11003;DHT22;5554;55.796;13.090;2022-07-24T01:02:10;16.70;99.90
11003;DHT22;5554;55.796;13.090;2022-07-24T01:04:38;16.60;99.90
11003;DHT22;5554;55.796;13.090;2022-07-24T01:07:05;16.50;99.90
11003;DHT22;5554;55.796;13.090;2022-07-24T01:09:32;16.50;99.90
11003;DHT22;5554;55.796;13.090;2022-07-24T01:12:00;16.40;99.90
11003;DHT22;5554;55.796;13.090;2022-07-24T01:14:27;16.40;99.90
11003;DHT22;5554;55.796;13.090;2022-07-24T01:16:55;16.30;99.90
11003;DHT22;5554;55.796;13.090;2022-07-24T01:19:22;16.40;99.90
11003;DHT22;5554;55.796;13.090;2022-07-24T01:21:53;16.50;99.90
11003;DHT22;5554;55.796;13.090;2022-07-24T01:24:21;16.30;99.90
11003;DHT22;5554;55.796;13.090;2022-07-24T01:26:50;16.30;99.90
11003;DHT22;5554;55.796;13.090;2022-07-24T01:29:17;16.20;99.90
11003;DHT22;5554;55.796;13.090;2022-07-24T01:31:44;16.20;99.90
11003;DHT22;5554;55.796;13.090;2022-07-24T01:34:11;16.20;99.90
11003;DHT22;5554;55.796;13.090;2022-07-24T01:36:38;16.20;99.90
11003;DHT22;5554;55.796;13.090;2022-07-24T01:39:07;16.10;99.90
11003;DHT22;5554;55.796;13.090;2022-07-24T01:41:33;16.00;99.90
11003;DHT22;5554;55.796;13.090;2022-07-24T01:44:00;16.00;99.90
11003;DHT22;5554;55.796;13.090;2022-07-24T01:46:28;16.00;99.90
11003;DHT22;5554;55.796;13.090;2022-07-24T01:48:55;15.90;99.90
11003;DHT22;5554;55.796;13.090;2022-07-24T01:51:22;15.90;99.90
11003;DHT22;5554;55.796;13.090;2022-07-24T01:53:49;15.90;99.90
11003;DHT22;5554;55.796;13.090;2022-07-24T01:56:17;15.80;99.90
11003;DHT22;5554;55.796;13.090;2022-07-24T01:58:44;15.80;99.90
11003;DHT22;5554;55.796;13.090;2022-07-24T02:01:11;15.80;99.90
11003;DHT22;5554;55.796;13.090;2022-07-24T02:03:38;15.70;99.90
11003;DHT22;5554;55.796;13.090;2022-07-24T02:06:05;15.70;99.90
11003;DHT22;5554;55.796;13.090;2022-07-24T02:08:32;15.70;99.90
11003;DHT22;5554;55.796;13.090;2022-07-24T02:10:59;15.70;99.90
11003;DHT22;5554;55.796;13.090;2022-07-24T02:13:27;15.70;99.90
11003;DHT22;5554;55.796;13.090;2022-07-24T02:15:54;15.60;99.90
11003;DHT22;5554;55.796;13.090;2022-07-24T02:18:21;15.50;99.90
11003;DHT22;5554;55.796;13.090;2022-07-24T02:20:48;15.60;99.90
11003;DHT22;5554;55.796;13.090;2022-07-24T02:23:15;15.50;99.90
11003;DHT22;5554;55.796;13.090;2022-07-24T02:25:43;15.50;99.90
11003;DHT22;5554;55.796;13.090;2022-07-24T02:28:11;15.50;99.90
11003;DHT22;5554;55.796;13.090;2022-07-24T02:30:39;15.50;99.90
11003;DHT22;5554;55.796;13.090;2022-07-24T02:33:06;15.50;99.90
11003;DHT22;5554;55.796;13.090;2022-07-24T02:35:33;15.50;99.90
11003;DHT22;5554;55.796;13.090;2022-07-24T02:38:01;15.30;99.90
11003;DHT22;5554;55.796;13.090;2022-07-24T02:40:27;15.30;99.90
11003;DHT22;5554;55.796;13.090;2022-07-24T02:42:54;15.40;99.90
11003;DHT22;5554;55.796;13.090;2022-07-24T02:45:22;15.40;99.90
11003;DHT22;5554;55.796;13.090;2022-07-24T02:47:52;15.40;99.90
11003;DHT22;5554;55.796;13.090;2022-07-24T02:50:20;15.40;99.90
11003;DHT22;5554;55.796;13.090;2022-07-24T02:52:47;15.30;99.90
11003;DHT22;5554;55.796;13.090;2022-07-24T02:55:14;15.30;99.90
11003;DHT22;5554;55.796;13.090;2022-07-24T02:57:41;15.20;99.90
11003;DHT22;5554;55.796;13.090;2022-07-24T03:00:11;15.20;99.90
11003;DHT22;5554;55.796;13.090;2022-07-24T03:02:39;15.30;99.90
11003;DHT22;5554;55.796;13.090;2022-07-24T03:05:08;15.10;99.90
11003;DHT22;5554;55.796;13.090;2022-07-24T03:07:35;15.10;99.90
11003;DHT22;5554;55.796;13.090;2022-07-24T03:10:03;15.10;99.90
11003;DHT22;5554;55.796;13.090;2022-07-24T03:12:30;15.10;99.90
11003;DHT22;5554;55.796;13.090;2022-07-24T03:14:57;15.00;99.90
11003;DHT22;5554;55.796;13.090;2022-07-24T03:17:24;15.00;99.90
11003;DHT22;5554;55.796;13.090;2022-07-24T03:19:50;15.00;99.90
11003;DHT22;5554;55.796;13.090;2022-07-24T03:22:20;14.90;99.90
11003;DHT22;5554;55.796;13.090;2022-07-24T03:24:47;14.80;99.90
11003;DHT22;5554;55.796;13.090;2022-07-24T03:27:14;14.90;99.90
11003;DHT22;5554;55.796;13.090;2022-07-24T03:29:41;14.90;99.90
11003;DHT22;5554;55.796;13.090;2022-07-24T03:32:07;14.80;99.90
11003;DHT22;5554;55.796;13.090;2022-07-24T03:34:34;14.90;99.90
11003;DHT22;5554;55.796;13.090;2022-07-24T03:37:01;14.90;99.90
11003;DHT22;5554;55.796;13.090;2022-07-24T03:39:29;15.00;99.90
11003;DHT22;5554;55.796;13.090;2022-07-24T03:41:56;14.90;99.90
11003;DHT22;5554;55.796;13.090;2022-07-24T03:44:23;14.80;99.90
11003;DHT22;5554;55.796;13.090;2022-07-24T03:46:50;14.80;99.90
11003;DHT22;5554;55.796;13.090;2022-07-24T03:49:17;14.80;99.90
11003;DHT22;5554;55.796;13.090;2022-07-24T03:51:44;14.80;99.90
11003;DHT22;5554;55.796;13.090;2022-07-24T03:54:11;14.80;99.90
11003;DHT22;5554;55.796;13.090;2022-07-24T03:56:39;14.80;99.90
11003;DHT22;5554;55.796;13.090;2022-07-24T03:59:06;14.80;99.90
11003;DHT22;5554;55.796;13.090;2022-07-24T04:01:33;14.80;99.90
11003;DHT22;5554;55.796;13.090;2022-07-24T04:03:59;14.80;99.90
11003;DHT22;5554;55.796;13.090;2022-07-24T04:06:30;14.80;99.90
11003;DHT22;5554;55.796;13.090;2022-07-24T04:08:58;14.80;99.90
11003;DHT22;5554;55.796;13.090;2022-07-24T04:11:25;14.90;99.90
11003;DHT22;5554;55.796;13.090;2022-07-24T04:13:53;14.90;99.90
11003;DHT22;5554;55.796;13.090;2022-07-24T04:16:20;14.90;99.90
11003;DHT22;5554;55.796;13.090;2022-07-24T04:18:46;14.90;99.90
11003;DHT22;5554;55.796;13.090;2022-07-24T04:21:14;14.80;99.90
11003;DHT22;5554;55.796;13.090;2022-07-24T04:23:41;14.80;99.90
11003;DHT22;5554;55.796;13.090;2022-07-24T04:26:08;14.70;99.90
11003;DHT22;5554;55.796;13.090;2022-07-24T04:28:35;14.60;99.90
11003;DHT22;5554;55.796;13.090;2022-07-24T04:31:04;14.70;99.90
11003;DHT22;5554;55.796;13.090;2022-07-24T04:33:32;14.60;99.90
11003;DHT22;5554;55.796;13.090;2022-07-24T04:35:59;14.60;99.90
11003;DHT22;5554;55.796;13.090;2022-07-24T04:38:26;14.60;99.90
11003;DHT22;5554;55.796;13.090;2022-07-24T04:40:53;14.60;99.90
11003;DHT22;5554;55.796;13.090;2022-07-24T04:43:19;14.60;99.90
11003;DHT22;5554;55.796;13.090;2022-07-24T04:45:47;14.60;99.90
11003;DHT22;5554;55.796;13.090;2022-07-24T04:48:15;14.60;99.90
11003;DHT22;5554;55.796;13.090;2022-07-24T04:50:42;14.70;99.90
11003;DHT22;5554;55.796;13.090;2022-07-24T04:53:09;14.70;99.90
11003;DHT22;5554;55.796;13.090;2022-07-24T04:55:36;14.80;99.90
11003;DHT22;5554;55.796;13.090;2022-07-24T04:58:03;14.80;99.90
11003;DHT22;5554;55.796;13.090;2022-07-24T05:00:29;14.90;99.90
11003;DHT22;5554;55.796;13.090;2022-07-24T05:02:56;14.80;99.90
11003;DHT22;5554;55.796;13.090;2022-07-24T05:05:25;14.90;99.90
11003;DHT22;5554;55.796;13.090;2022-07-24T05:07:52;14.80;99.90
11003;DHT22;5554;55.796;13.090;2022-07-24T05:10:19;14.90;99.90
11003;DHT22;5554;55.796;13.090;2022-07-24T05:12:46;14.80;99.90
11003;DHT22;5554;55.796;13.090;2022-07-24T05:15:12;14.90;99.90
11003;DHT22;5554;55.796;13.090;2022-07-24T05:17:39;15.00;99.90
11003;DHT22;5554;55.796;13.090;2022-07-24T05:20:07;15.00;99.90
11003;DHT22;5554;55.796;13.090;2022-07-24T05:22:36;15.00;99.90
11003;DHT22;5554;55.796;13.090;2022-07-24T05:25:03;15.10;99.90
11003;DHT22;5554;55.796;13.090;2022-07-24T05:27:30;15.10;99.90
11003;DHT22;5554;55.796;13.090;2022-07-24T05:29:57;15.10;99.90
11003;DHT22;5554;55.796;13.090;2022-07-24T05:32:24;15.20;99.90
11003;DHT22;5554;55.796;13.090;2022-07-24T05:34:51;15.10;99.90
11003;DHT22;5554;55.796;13.090;2022-07-24T05:37:18;14.90;99.90
11003;DHT22;5554;55.796;13.090;2022-07-24T05:39:46;14.90;99.90
11003;DHT22;5554;55.796;13.090;2022-07-24T05:42:13;15.00;99.90
11003;DHT22;5554;55.796;13.090;2022-07-24T05:44:40;15.00;99.90
11003;DHT22;5554;55.796;13.090;2022-07-24T05:47:07;15.00;99.90
11003;DHT22;5554;55.796;13.090;2022-07-24T05:49:34;15.10;99.90
11003;DHT22;5554;55.796;13.090;2022-07-24T05:52:01;15.10;99.90
11003;DHT22;5554;55.796;13.090;2022-07-24T05:54:28;15.00;99.90
11003;DHT22;5554;55.796;13.090;2022-07-24T05:56:56;15.10;99.90
11003;DHT22;5554;55.796;13.090;2022-07-24T05:59:23;15.20;99.90
11003;DHT22;5554;55.796;13.090;2022-07-24T06:01:50;15.40;99.90
11003;DHT22;5554;55.796;13.090;2022-07-24T06:04:17;15.30;99.90
11003;DHT22;5554;55.796;13.090;2022-07-24T06:06:45;15.30;99.90
11003;DHT22;5554;55.796;13.090;2022-07-24T06:09:12;15.30;99.90
11003;DHT22;5554;55.796;13.090;2022-07-24T06:11:38;15.40;99.90
11003;DHT22;5554;55.796;13.090;2022-07-24T06:14:07;15.40;99.90
11003;DHT22;5554;55.796;13.090;2022-07-24T06:16:34;15.60;99.90
11003;DHT22;5554;55.796;13.090;2022-07-24T06:19:01;15.60;99.90
11003;DHT22;5554;55.796;13.090;2022-07-24T06:21:28;15.70;99.90
11003;DHT22;5554;55.796;13.090;2022-07-24T06:23:58;15.70;99.90
11003;DHT22;5554;55.796;13.090;2022-07-24T06:26:25;15.70;99.90
11003;DHT22;5554;55.796;13.090;2022-07-24T06:28:52;15.50;99.90
11003;DHT22;5554;55.796;13.090;2022-07-24T06:31:20;15.60;99.90
11003;DHT22;5554;55.796;13.090;2022-07-24T06:33:47;15.70;99.90
11003;DHT22;5554;55.796;13.090;2022-07-24T06:36:17;15.90;99.90
11003;DHT22;5554;55.796;13.090;2022-07-24T06:38:45;15.90;99.90
11003;DHT22;5554;55.796;13.090;2022-07-24T06:41:12;16.00;99.90
11003;DHT22;5554;55.796;13.090;2022-07-24T06:43:38;16.20;99.90
11003;DHT22;5554;55.796;13.090;2022-07-24T06:46:06;16.40;99.90
11003;DHT22;5554;55.796;13.090;2022-07-24T06:48:34;16.50;99.90
11003;DHT22;5554;55.796;13.090;2022-07-24T06:51:01;16.70;99.90
11003;DHT22;5554;55.796;13.090;2022-07-24T06:53:28;16.80;99.90
11003;DHT22;5554;55.796;13.090;2022-07-24T06:55:55;16.80;99.90
11003;DHT22;5554;55.796;13.090;2022-07-24T06:58:22;16.70;99.90
11003;DHT22;5554;55.796;13.090;2022-07-24T07:00:49;16.50;99.90
11003;DHT22;5554;55.796;13.090;2022-07-24T07:03:16;16.70;99.90
11003;DHT22;5554;55.796;13.090;2022-07-24T07:05:45;16.60;99.90
11003;DHT22;5554;55.796;13.090;2022-07-24T07:08:12;16.40;99.90
11003;DHT22;5554;55.796;13.090;2022-07-24T07:10:39;16.40;99.90
11003;DHT22;5554;55.796;13.090;2022-07-24T07:13:06;16.60;99.90
11003;DHT22;5554;55.796;13.090;2022-07-24T07:15:33;16.50;99.90
11003;DHT22;5554;55.796;13.090;2022-07-24T07:18:14;16.60;99.90
11003;DHT22;5554;55.796;13.090;2022-07-24T07:20:41;16.50;99.90
11003;DHT22;5554;55.796;13.090;2022-07-24T07:23:09;16.70;99.90
11003;DHT22;5554;55.796;13.090;2022-07-24T07:25:36;16.50;99.90
11003;DHT22;5554;55.796;13.090;2022-07-24T07:28:04;16.50;99.90
11003;DHT22;5554;55.796;13.090;2022-07-24T07:30:31;16.70;99.90
11003;DHT22;5554;55.796;13.090;2022-07-24T07:32:58;17.00;99.90
11003;DHT22;5554;55.796;13.090;2022-07-24T07:35:25;16.80;99.90
11003;DHT22;5554;55.796;13.090;2022-07-24T07:37:52;16.70;99.90
11003;DHT22;5554;55.796;13.090;2022-07-24T07:40:20;16.70;99.90
11003;DHT22;5554;55.796;13.090;2022-07-24T07:42:47;16.80;99.90
11003;DHT22;5554;55.796;13.090;2022-07-24T07:45:14;16.80;99.90
11003;DHT22;5554;55.796;13.090;2022-07-24T07:47:41;17.10;99.90
11003;DHT22;5554;55.796;13.090;2022-07-24T07:50:12;17.10;99.90
11003;DHT22;5554;55.796;13.090;2022-07-24T07:52:40;17.00;99.90
11003;DHT22;5554;55.796;13.090;2022-07-24T07:55:08;17.20;99.90
11003;DHT22;5554;55.796;13.090;2022-07-24T07:57:36;17.20;99.90
11003;DHT22;5554;55.796;13.090;2022-07-24T08:00:07;17.50;99.90
11003;DHT22;5554;55.796;13.090;2022-07-24T08:02:34;17.60;99.90
11003;DHT22;5554;55.796;13.090;2022-07-24T08:05:02;17.30;99.90
11003;DHT22;5554;55.796;13.090;2022-07-24T08:07:29;17.10;99.90
11003;DHT22;5554;55.796;13.090;2022-07-24T08:09:56;17.30;99.90
11003;DHT22;5554;55.796;13.090;2022-07-24T08:12:25;17.50;99.90
11003;DHT22;5554;55.796;13.090;2022-07-24T08:15:22;17.20;99.90
11003;DHT22;5554;55.796;13.090;2022-07-24T08:17:51;17.30;99.90
11003;DHT22;5554;55.796;13.090;2022-07-24T08:20:19;17.30;99.90
11003;DHT22;5554;55.796;13.090;2022-07-24T08:22:46;17.30;99.90
11003;DHT22;5554;55.796;13.090;2022-07-24T08:25:14;17.60;99.90
11003;DHT22;5554;55.796;13.090;2022-07-24T08:27:42;17.70;99.90
11003;DHT22;5554;55.796;13.090;2022-07-24T08:30:10;17.80;99.90
11003;DHT22;5554;55.796;13.090;2022-07-24T08:32:56;18.00;99.90
11003;DHT22;5554;55.796;13.090;2022-07-24T08:35:23;18.10;99.90
11003;DHT22;5554;55.796;13.090;2022-07-24T08:37:50;18.60;99.90
11003;DHT22;5554;55.796;13.090;2022-07-24T08:40:17;19.10;99.90
11003;DHT22;5554;55.796;13.090;2022-07-24T08:42:44;19.90;99.90
11003;DHT22;5554;55.796;13.090;2022-07-24T08:45:13;20.00;99.90
11003;DHT22;5554;55.796;13.090;2022-07-24T08:47:41;20.20;99.90
11003;DHT22;5554;55.796;13.090;2022-07-24T08:50:17;20.90;99.90
11003;DHT22;5554;55.796;13.090;2022-07-24T08:52:46;20.70;99.90
11003;DHT22;5554;55.796;13.090;2022-07-24T08:55:13;20.80;99.90
11003;DHT22;5554;55.796;13.090;2022-07-24T08:57:40;21.30;99.90
11003;DHT22;5554;55.796;13.090;2022-07-24T09:00:08;21.30;99.90
11003;DHT22;5554;55.796;13.090;2022-07-24T09:02:36;21.50;99.90
11003;DHT22;5554;55.796;13.090;2022-07-24T09:05:04;21.10;1.00
11003;DHT22;5554;55.796;13.090;2022-07-24T09:07:47;21.80;99.90
11003;DHT22;5554;55.796;13.090;2022-07-24T09:10:19;22.30;1.00
11003;DHT22;5554;55.796;13.090;2022-07-24T09:13:16;21.70;1.00
11003;DHT22;5554;55.796;13.090;2022-07-24T09:15:55;22.50;21.10
11003;DHT22;5554;55.796;13.090;2022-07-24T09:18:28;22.50;99.90
11003;DHT22;5554;55.796;13.090;2022-07-24T09:20:56;22.90;1.00
11003;DHT22;5554;55.796;13.090;2022-07-24T09:23:25;22.20;1.00
11003;DHT22;5554;55.796;13.090;2022-07-24T09:25:53;22.30;1.00
11003;DHT22;5554;55.796;13.090;2022-07-24T09:28:20;22.00;81.10
11003;DHT22;5554;55.796;13.090;2022-07-24T09:30:48;22.10;1.00
11003;DHT22;5554;55.796;13.090;2022-07-24T09:33:16;23.00;1.00
11003;DHT22;5554;55.796;13.090;2022-07-24T09:38:50;23.10;1.00
11003;DHT22;5554;55.796;13.090;2022-07-24T09:41:31;23.00;1.00
11003;DHT22;5554;55.796;13.090;2022-07-24T09:44:12;23.10;99.90
11003;DHT22;5554;55.796;13.090;2022-07-24T09:46:46;22.80;1.00
11003;DHT22;5554;55.796;13.090;2022-07-24T09:49:19;23.10;1.00
11003;DHT22;5554;55.796;13.090;2022-07-24T09:52:07;22.90;99.90
11003;DHT22;5554;55.796;13.090;2022-07-24T09:54:40;23.00;99.90
11003;DHT22;5554;55.796;13.090;2022-07-24T09:57:18;23.30;97.20
11003;DHT22;5554;55.796;13.090;2022-07-24T10:02:58;24.10;1.00
11003;DHT22;5554;55.796;13.090;2022-07-24T10:05:27;25.50;1.00
11003;DHT22;5554;55.796;13.090;2022-07-24T10:07:59;25.50;1.00
11003;DHT22;5554;55.796;13.090;2022-07-24T10:10:32;25.50;99.90
11003;DHT22;5554;55.796;13.090;2022-07-24T10:13:00;24.60;99.90
11003;DHT22;5554;55.796;13.090;2022-07-24T10:15:29;25.20;99.90
11003;DHT22;5554;55.796;13.090;2022-07-24T10:21:06;26.10;1.00
11003;DHT22;5554;55.796;13.090;2022-07-24T10:23:45;24.70;1.00
11003;DHT22;5554;55.796;13.090;2022-07-24T10:26:29;25.20;1.00
11003;DHT22;5554;55.796;13.090;2022-07-24T10:29:06;25.80;1.00
11003;DHT22;5554;55.796;13.090;2022-07-24T10:31:37;25.20;99.90
11003;DHT22;5554;55.796;13.090;2022-07-24T10:34:13;25.20;99.90
11003;DHT22;5554;55.796;13.090;2022-07-24T10:36:54;25.40;99.90
11003;DHT22;5554;55.796;13.090;2022-07-24T10:39:30;24.90;99.90
11003;DHT22;5554;55.796;13.090;2022-07-24T10:42:04;24.90;99.90
11003;DHT22;5554;55.796;13.090;2022-07-24T10:44:32;24.80;99.90
11003;DHT22;5554;55.796;13.090;2022-07-24T10:47:04;25.30;99.90
11003;DHT22;5554;55.796;13.090;2022-07-24T10:49:43;25.40;99.90
11003;DHT22;5554;55.796;13.090;2022-07-24T10:52:14;25.70;99.90
11003;DHT22;5554;55.796;13.090;2022-07-24T10:54:47;25.90;99.90
11003;DHT22;5554;55.796;13.090;2022-07-24T10:57:16;25.20;14.00
11003;DHT22;5554;55.796;13.090;2022-07-24T10:59:43;25.10;1.00
11003;DHT22;5554;55.796;13.090;2022-07-24T11:02:30;25.50;1.00
11003;DHT22;5554;55.796;13.090;2022-07-24T11:05:23;25.60;1.00
11003;DHT22;5554;55.796;13.090;2022-07-24T11:11:13;26.10;1.00
11003;DHT22;5554;55.796;13.090;2022-07-24T11:13:58;25.10;1.00
11003;DHT22;5554;55.796;13.090;2022-07-24T11:16:29;25.50;1.00
11003;DHT22;5554;55.796;13.090;2022-07-24T11:19:25;26.10;1.00
11003;DHT22;5554;55.796;13.090;2022-07-24T11:22:06;25.50;1.00
11003;DHT22;5554;55.796;13.090;2022-07-24T11:24:34;25.80;1.00
11003;DHT22;5554;55.796;13.090;2022-07-24T11:27:12;26.60;1.00
11003;DHT22;5554;55.796;13.090;2022-07-24T11:29:44;26.90;1.00
11003;DHT22;5554;55.796;13.090;2022-07-24T11:32:12;26.70;1.00
11003;DHT22;5554;55.796;13.090;2022-07-24T11:34:47;26.90;1.00
11003;DHT22;5554;55.796;13.090;2022-07-24T11:37:15;27.50;99.90
11003;DHT22;5554;55.796;13.090;2022-07-24T11:39:43;25.90;99.90
11003;DHT22;5554;55.796;13.090;2022-07-24T11:42:23;25.60;99.90
11003;DHT22;5554;55.796;13.090;2022-07-24T11:45:09;24.90;99.90
11003;DHT22;5554;55.796;13.090;2022-07-24T11:47:37;25.60;99.90
11003;DHT22;5554;55.796;13.090;2022-07-24T11:50:06;26.30;1.00
11003;DHT22;5554;55.796;13.090;2022-07-24T11:52:37;26.90;1.00
11003;DHT22;5554;55.796;13.090;2022-07-24T11:55:09;27.60;99.90
11003;DHT22;5554;55.796;13.090;2022-07-24T11:57:42;27.60;99.90
11003;DHT22;5554;55.796;13.090;2022-07-24T12:00:17;27.40;99.90
11003;DHT22;5554;55.796;13.090;2022-07-24T12:02:52;27.20;99.90
11003;DHT22;5554;55.796;13.090;2022-07-24T12:05:27;26.50;99.90
11003;DHT22;5554;55.796;13.090;2022-07-24T12:07:57;25.70;99.90
11003;DHT22;5554;55.796;13.090;2022-07-24T12:10:28;24.80;99.90
11003;DHT22;5554;55.796;13.090;2022-07-24T12:12:56;24.70;99.90
11003;DHT22;5554;55.796;13.090;2022-07-24T12:15:25;25.20;99.90
11003;DHT22;5554;55.796;13.090;2022-07-24T12:17:55;25.70;99.90
11003;DHT22;5554;55.796;13.090;2022-07-24T12:20:24;25.50;99.90
11003;DHT22;5554;55.796;13.090;2022-07-24T12:22:52;25.30;99.90
11003;DHT22;5554;55.796;13.090;2022-07-24T12:25:22;25.00;99.90
11003;DHT22;5554;55.796;13.090;2022-07-24T12:27:49;24.70;99.90
11003;DHT22;5554;55.796;13.090;2022-07-24T12:33:28;24.00;99.90
11003;DHT22;5554;55.796;13.090;2022-07-24T12:35:56;23.90;99.90
11003;DHT22;5554;55.796;13.090;2022-07-24T12:38:26;24.30;1.00
11003;DHT22;5554;55.796;13.090;2022-07-24T12:41:05;24.10;1.00
11003;DHT22;5554;55.796;13.090;2022-07-24T12:43:33;23.40;1.00
11003;DHT22;5554;55.796;13.090;2022-07-24T12:46:12;23.10;1.00
11003;DHT22;5554;55.796;13.090;2022-07-24T12:48:54;22.80;1.00
11003;DHT22;5554;55.796;13.090;2022-07-24T12:51:21;23.30;1.00
11003;DHT22;5554;55.796;13.090;2022-07-24T12:53:53;23.60;1.00
11003;DHT22;5554;55.796;13.090;2022-07-24T12:59:24;23.40;1.00
11003;DHT22;5554;55.796;13.090;2022-07-24T13:01:53;23.90;1.00
11003;DHT22;5554;55.796;13.090;2022-07-24T13:04:24;23.90;1.00
11003;DHT22;5554;55.796;13.090;2022-07-24T13:06:56;23.80;1.00
11003;DHT22;5554;55.796;13.090;2022-07-24T13:09:32;23.60;1.00
11003;DHT22;5554;55.796;13.090;2022-07-24T13:11:59;23.60;1.00
11003;DHT22;5554;55.796;13.090;2022-07-24T13:14:26;23.40;1.00
11003;DHT22;5554;55.796;13.090;2022-07-24T13:17:02;23.30;1.00
11003;DHT22;5554;55.796;13.090;2022-07-24T13:19:45;23.20;1.00
11003;DHT22;5554;55.796;13.090;2022-07-24T13:22:14;23.10;1.00
11003;DHT22;5554;55.796;13.090;2022-07-24T13:24:41;23.00;1.00
11003;DHT22;5554;55.796;13.090;2022-07-24T13:27:10;23.00;1.00
11003;DHT22;5554;55.796;13.090;2022-07-24T13:29:39;22.90;1.00
11003;DHT22;5554;55.796;13.090;2022-07-24T13:32:06;22.90;1.00
11003;DHT22;5554;55.796;13.090;2022-07-24T13:34:33;23.00;1.00
11003;DHT22;5554;55.796;13.090;2022-07-24T13:37:02;23.20;1.00
11003;DHT22;5554;55.796;13.090;2022-07-24T13:39:32;23.70;1.00
11003;DHT22;5554;55.796;13.090;2022-07-24T13:42:02;23.40;1.00
11003;DHT22;5554;55.796;13.090;2022-07-24T13:44:32;23.70;1.00
11003;DHT22;5554;55.796;13.090;2022-07-24T13:46:59;23.40;1.00
11003;DHT22;5554;55.796;13.090;2022-07-24T13:49:26;23.30;1.00
11003;DHT22;5554;55.796;13.090;2022-07-24T13:51:53;23.70;1.00
11003;DHT22;5554;55.796;13.090;2022-07-24T13:54:23;23.90;1.00
11003;DHT22;5554;55.796;13.090;2022-07-24T13:56:51;24.10;1.00
11003;DHT22;5554;55.796;13.090;2022-07-24T13:59:18;24.40;1.00
11003;DHT22;5554;55.796;13.090;2022-07-24T14:01:46;24.20;1.00
11003;DHT22;5554;55.796;13.090;2022-07-24T14:04:13;24.20;1.00
11003;DHT22;5554;55.796;13.090;2022-07-24T14:06:40;24.00;1.00
11003;DHT22;5554;55.796;13.090;2022-07-24T14:09:07;24.20;1.00
11003;DHT22;5554;55.796;13.090;2022-07-24T14:11:36;23.80;1.00
11003;DHT22;5554;55.796;13.090;2022-07-24T14:14:03;23.80;1.00
11003;DHT22;5554;55.796;13.090;2022-07-24T14:16:30;23.90;1.00
11003;DHT22;5554;55.796;13.090;2022-07-24T14:18:57;23.70;1.00
11003;DHT22;5554;55.796;13.090;2022-07-24T14:21:24;23.80;1.00
11003;DHT22;5554;55.796;13.090;2022-07-24T14:23:51;23.60;1.00
11003;DHT22;5554;55.796;13.090;2022-07-24T14:26:18;23.70;1.00
11003;DHT22;5554;55.796;13.090;2022-07-24T14:28:46;23.70;1.00
11003;DHT22;5554;55.796;13.090;2022-07-24T14:31:13;23.90;1.00
11003;DHT22;5554;55.796;13.090;2022-07-24T14:33:41;23.90;1.00
11003;DHT22;5554;55.796;13.090;2022-07-24T14:36:09;24.00;1.00
11003;DHT22;5554;55.796;13.090;2022-07-24T14:38:37;23.80;1.00
11003;DHT22;5554;55.796;13.090;2022-07-24T14:41:09;23.90;1.00
11003;DHT22;5554;55.796;13.090;2022-07-24T14:43:36;24.20;1.00
11003;DHT22;5554;55.796;13.090;2022-07-24T14:46:05;24.40;1.00
11003;DHT22;5554;55.796;13.090;2022-07-24T14:48:32;23.70;1.00
11003;DHT22;5554;55.796;13.090;2022-07-24T14:50:59;23.60;1.00
11003;DHT22;5554;55.796;13.090;2022-07-24T14:53:26;23.50;1.00
11003;DHT22;5554;55.796;13.090;2022-07-24T14:55:53;23.10;1.00
11003;DHT22;5554;55.796;13.090;2022-07-24T14:58:20;23.00;1.00
11003;DHT22;5554;55.796;13.090;2022-07-24T15:00:52;22.80;1.00
11003;DHT22;5554;55.796;13.090;2022-07-24T15:03:22;22.70;1.00
11003;DHT22;5554;55.796;13.090;2022-07-24T15:05:49;23.00;1.00
11003;DHT22;5554;55.796;13.090;2022-07-24T15:08:21;23.00;1.00
11003;DHT22;5554;55.796;13.090;2022-07-24T15:10:48;22.90;1.00
11003;DHT22;5554;55.796;13.090;2022-07-24T15:13:36;22.80;1.00
11003;DHT22;5554;55.796;13.090;2022-07-24T15:16:06;22.90;1.00
11003;DHT22;5554;55.796;13.090;2022-07-24T15:18:35;22.70;1.00
11003;DHT22;5554;55.796;13.090;2022-07-24T15:21:08;22.50;1.00
11003;DHT22;5554;55.796;13.090;2022-07-24T15:23:41;22.40;1.00
11003;DHT22;5554;55.796;13.090;2022-07-24T15:26:08;22.50;1.00
11003;DHT22;5554;55.796;13.090;2022-07-24T15:28:35;22.30;1.00
11003;DHT22;5554;55.796;13.090;2022-07-24T15:31:02;22.10;1.00
11003;DHT22;5554;55.796;13.090;2022-07-24T15:33:29;22.20;1.00
11003;DHT22;5554;55.796;13.090;2022-07-24T15:35:57;21.90;1.00
11003;DHT22;5554;55.796;13.090;2022-07-24T15:38:24;22.00;1.00
11003;DHT22;5554;55.796;13.090;2022-07-24T15:40:51;21.80;1.00
11003;DHT22;5554;55.796;13.090;2022-07-24T15:43:18;21.70;99.90
11003;DHT22;5554;55.796;13.090;2022-07-24T15:45:45;21.70;99.90
11003;DHT22;5554;55.796;13.090;2022-07-24T15:48:26;21.70;99.90
11003;DHT22;5554;55.796;13.090;2022-07-24T15:51:05;21.80;99.90
11003;DHT22;5554;55.796;13.090;2022-07-24T15:53:34;21.80;99.90
11003;DHT22;5554;55.796;13.090;2022-07-24T15:56:01;21.60;1.00
11003;DHT22;5554;55.796;13.090;2022-07-24T15:58:28;21.70;1.00
11003;DHT22;5554;55.796;13.090;2022-07-24T16:00:54;21.60;1.00
11003;DHT22;5554;55.796;13.090;2022-07-24T16:03:23;21.60;1.00
11003;DHT22;5554;55.796;13.090;2022-07-24T16:08:39;21.40;1.00